Erddig parkrun # 93 - 21/04/2018

PosparkrunnerTimeAge CatAge GradeGender PosClubNoteTotal Runs
1Kyle WILLIAMS19:07SM20-2467.48 %M1New PB!7
2Stuart TURNER19:45SM25-2965.32 %M2Harwell HarriersFirst Timer!43Strava logo
3Dean RICHARDS20:20SM30-3463.77 %M3Whitchurch WhippetsNew PB!59Member of the parkrun 50 Club
4Peter SUSSEX21:00VM50-5471.35 %M4Wrexham AACNew PB!23
5Simon MORALEE21:21VM40-4464.87 %M5PB stays at 00:21:0543Strava logo
6Ben WHITE21:27SM30-3460.30 %M6First Timer!9
7John HODGSON21:29SM30-3460.20 %M7New PB!16Strava logo
8Stephen ROBERTS21:34VM60-6477.05 %M8Oswestry OlympiansPB stays at 00:21:2313
9Unknown
10David WATTS21:58VM45-4965.02 %M10New PB!8
11David MILLINGTON22:05VM45-4965.74 %M11Wrexham AACPB stays at 00:20:3515
12Carl HAYES22:17VM40-4463.13 %M12First Timer!1Strava logo
13Darrell WALSH22:17VM40-4462.15 %M13Oswestry OlympiansPB stays at 00:21:3181Member of the parkrun 50 Club
14Peter GRIMLEY22:27VM35-3959.91 %M14PB stays at 00:21:5722
15Kov BAHADORI22:45VM35-3958.68 %M15First Timer!214Member of the parkrun 100 ClubMember of the parkrun v25 Club
16Rhydian JONES22:53SM30-3456.81 %M16PB stays at 00:22:0118
17Unknown
18Paul HARRIS23:09VM60-6471.13 %M18PB stays at 00:22:4742
19Craig JONES23:13VM50-5464.54 %M19New PB!20
20Jonathan GUY23:15SM25-2955.48 %M20New PB!24
21Elaine SARGENT23:15VW45-4970.39 %F1New PB!74Member of the parkrun 50 Club
22Janet OWENS23:23VW40-4466.79 %F2Knowsley Harriers ACPB stays at 00:22:3714
23Robert DERRY23:23SM20-2455.17 %M21New PB!9
24Robert BURNS23:28SM30-3455.26 %M22Cadence TriFirst Timer!19
25Stephen BOTHAM23:33VM55-5967.52 %M23Wrecsam TriPB stays at 00:22:1113
26Neil SHAW23:33VM45-4961.15 %M24PB stays at 00:22:41132Member of the parkrun 100 Club
27Tim BROWN23:38VM50-5463.40 %M25PB stays at 00:22:5818
28Lee MCDERMOTT23:44VM35-3957.09 %M26New PB!2
29Callum MCGRATH23:48JM11-1459.59 %M27Wrexham AACNew PB!47Member of the parkrun 10 Club
30Matthew QUARMBY23:50SM30-3454.41 %M28PB stays at 00:21:3042
31Dan JONES24:30VM45-4959.25 %M29PB stays at 00:23:2860Member of the parkrun 50 Club
32Charlie MCGRATH24:38VM55-5963.46 %M30PB stays at 00:24:3748
33Rob PULLEN24:42VM50-5460.66 %M31Wrecsam TriNew PB!139Member of the parkrun 100 ClubMember of the parkrun v25 ClubStrava logo
34Alistaire EVANS24:48VM40-4456.32 %M32PB stays at 00:22:5318
35John JONES24:49VM50-5461.38 %M33PB stays at 00:21:51202Member of the parkrun 100 ClubStrava logo
36Nadine PILKINGTON25:08SW25-2958.89 %F3Wrecsam TriPB stays at 00:24:3026
37Luke Alex EDWARDS25:10JM11-1457.62 %M34First Timer!1
38Dale SANDLE25:11VM35-3952.68 %M35PB stays at 00:24:348
39James MAY25:22SM20-2450.85 %M36PB stays at 00:23:4820Strava logo
40Philip HILL25:26VM60-6464.15 %M37PB stays at 00:24:1227
41Phoebe NORFOLK25:29JW11-1461.67 %F4Wrexham AACPB stays at 00:24:0335Member of the parkrun 10 Club
42Jenny EWELS25:30VW45-4962.29 %F5PB stays at 00:24:0112
43Kev EDWARDS25:32VM40-4454.70 %M38First Timer!1
44Colin SIMS25:33VM50-5457.73 %M39First Timer!112Member of the parkrun 100 Club
45Ian MOSS25:46VM35-3951.49 %M40New PB!4
46Tomasi MOCELEUTU25:55SM30-3450.35 %M41First Timer!1
47Geoffrey Alun PRYDDEN26:00VM55-5959.10 %M42PB stays at 00:25:0648
48Elliot NIELD26:02VM35-3952.05 %M43New PB!3
49Ian EVANS26:06VM45-4955.17 %M44New PB!4
50Malcolm SHONE26:11VM55-5960.22 %M45PB stays at 00:24:0729
51Geraint SCOURFIELD26:28VM45-4954.41 %M46PB stays at 00:24:4313
52Les LEECH26:36VM70-7466.29 %M47PB stays at 00:25:1943
53Jane ANTROBUS26:38VW45-4960.83 %F6New PB!26Strava logo
54Phillip JONES26:41VM40-4451.91 %M48Erddig Muddy TrainersNew PB!14Strava logo
55Keiron SHONE26:43VM35-3949.97 %M49New PB!10
56Tim EDWARDS26:48VM35-3950.56 %M50PB stays at 00:26:3019Strava logo
57Colin JONES26:54VM60-6459.60 %M51PB stays at 00:26:3814
58Michael ALCORN26:55VM55-5957.59 %M52New PB!8
59Kit NOBLE26:58JM11-1456.74 %M53PB stays at 00:25:3124Member of the parkrun 10 Club
60Rachael FOSTER27:00VW45-4961.36 %F7Whitchurch WhippetsFirst Timer!6
61Alex WILLIAMS27:11VM40-4450.21 %M54New PB!16
62Neil SHELDRAKE27:13VM50-5455.97 %M55Razzers RunnersFirst Timer!58Member of the parkrun 50 ClubStrava logo
63Unknown
64Peter WRIGHT27:14VM40-4450.49 %M57PB stays at 00:26:548
65Mike GEARY27:18VM55-5956.29 %M58Razzers RunnersFirst Timer!70Member of the parkrun 50 Club
66Rachel ROBINSON27:20SW30-3454.15 %F8First Timer!23
67Henrietta DUFFEY27:22JW11-1458.34 %F9New PB!63Member of the parkrun 50 Club
68Angharad JETLEY27:24VW40-4456.57 %F10PB stays at 00:25:3466Member of the parkrun 50 Club
69David KENNEDY27:28VM55-5956.43 %M59PB stays at 00:26:34194Member of the parkrun 100 ClubMember of the parkrun v25 ClubStrava logo
70Pete CREWE27:31VM50-5454.94 %M60PB stays at 00:27:1066Member of the parkrun 50 ClubStrava logo
71Jane NOAD27:35VW45-4958.73 %F11New PB!4
72Dan JENNINGS27:42VM35-3947.59 %M61PB stays at 00:24:5025
73Sue JENNINGS27:46VW50-5461.88 %F12Razzers RunnersFirst Timer!10
74Mike GRAY27:51VM60-6457.57 %M62First Timer!30
75Richard NOYES27:58VM45-4951.07 %M63PB stays at 00:25:0541Strava logo
76Unknown
77Christopher CARR28:16VM50-5453.89 %M65New PB!8
78Bruce ROBERTS28:23VM50-5452.79 %M66Wrecsam TriPB stays at 00:25:2543Strava logo
79Val WILLIAMS28:24VW50-5460.50 %F13PB stays at 00:27:5341
80Samantha COX28:27VW40-4454.48 %F14PB stays at 00:28:2323
81Phillip YOUNG28:30VM50-5453.04 %M67New PB!14
82Simon ROBERTS28:33VM50-5451.66 %M68Whitchurch WhippetsFirst Timer!16
83Kathryn ALCORN28:35VW55-5963.32 %F15PB stays at 00:26:59144Member of the parkrun 100 Club
84Jane MCGRATH28:40VW50-5459.94 %F16PB stays at 00:27:5947
85Diane ONSLOW28:49VW50-5458.88 %F17PB stays at 00:28:4022
86Hannah SAUNDERS28:54SW30-3451.33 %F18New PB!8
87Unknown
88Chris HOLLEWORTH28:59SM20-2444.51 %M70First Timer!5
89Kate THELWELL29:07SW25-2950.83 %F19New PB!8
90Simon DAVIES29:08SM30-3444.51 %M71PB stays at 00:27:4911
91Duncan FOSTER29:09VM55-5953.63 %M72PB stays at 00:25:5747Strava logo
92Joanne CUNNINGHAM29:13VW40-4452.65 %F20Erddig Muddy TrainersPB stays at 00:27:4723
93Jessica CARTER29:17VW35-3951.05 %F21PB stays at 00:29:0412Strava logo
94Lizzie BARLOW29:20SW30-3450.80 %F22PB stays at 00:26:5126
95Caroline JONES29:20VW45-4954.15 %F23PB stays at 00:28:1317
96Kate MATTHEWS29:21VW35-3951.28 %F24New PB!17
97Alison SEFTON29:29VW40-4452.57 %F25New PB!3
98Pauline GOODLAD29:29VW35-3950.88 %F26PB stays at 00:29:1318
99Paul HUMPHRIES29:31VM55-5953.87 %M73PB stays at 00:26:06133Member of the parkrun 100 ClubStrava logo
100Alex DUFFEY29:32VW40-4452.88 %F27PB stays at 00:29:04119Member of the parkrun 100 Club
101Richard KNEW29:33VM45-4949.52 %M74New PB!11
102Catherine GUY29:41SW25-2949.86 %F28New PB!18Strava logo
103Dan ROACH29:42SM30-3443.77 %M75New PB!2
104Yvonne RICHARDS29:45VW55-5960.84 %F29PB stays at 00:28:0774Member of the parkrun 50 Club
105Steven RICHARDS29:45VM55-5952.55 %M76PB stays at 00:25:2633
106Michael CLARKE29:50VM50-5451.06 %M77PB stays at 00:28:4450Member of the parkrun 50 Club
107Jack BOOKHAM30:09SM25-2942.79 %M78First Timer!1
108Rebecca EVANS30:14SW25-2948.95 %F30New PB!2
109Joanne CORNFORTH30:25VW45-4953.81 %F31New PB!2
110Emma DAVIES30:30SW30-3448.58 %F32PB stays at 00:27:1511Strava logo
111Mark ROBERTSON30:40VM50-5448.10 %M79First Timer!1
112Marie HILL30:40VW40-4451.30 %F33First Timer!1
113Simon HEBBLEWHITE30:41VM45-4946.55 %M80PB stays at 00:26:4931
114David WILLIAMS30:42VM65-6956.79 %M81PB stays at 00:30:2841
115Lisa WAGNER30:43SW20-2448.18 %F34PB stays at 00:30:1535
116Caz CAFFERY30:44VW40-4450.43 %F35PB stays at 00:29:5522
117Unknown
118Angela EVANS30:51VW45-4953.05 %F36New PB!8
119Theresa BANKS30:53VW40-4449.81 %F37New PB!5Strava logo
120Daisy CLARKE31:04JW11-1451.39 %F38PB stays at 00:27:3326Member of the parkrun 10 Club
121Andy CLARKE31:05VM60-6451.58 %M83PB stays at 00:20:3058Member of the parkrun 50 Club
122Unknown
123Evie EVANS31:06JW11-1452.36 %F39PB stays at 00:28:3317Member of the parkrun 10 Club
124Connor FORD31:09SM20-2441.57 %M85First Timer!1
125Anna ROBERTS31:13VW50-5455.79 %F40New PB!29
126Mikey SCOTT31:15SM20-2441.28 %M86First Timer!2
127Peter WORTHINGTON31:16VM45-4946.43 %M87Astley & Tyldesley Road RunnersNew PB!122Member of the parkrun 100 ClubStrava logo
128Cath WORTHINGTON31:17VW40-4449.92 %F41Astley & Tyldesley Road RunnersPB stays at 00:27:09154Member of the parkrun 100 ClubStrava logo
129Tracy DAVIES31:22VW50-5454.78 %F42PB stays at 00:30:2221
130Violet JONES31:24JW15-1749.36 %F43PB stays at 00:28:5136Member of the parkrun 10 Club
131Edward D RYAN31:29VM60-6451.83 %M88PB stays at 00:30:2414
132Kate MOCELUTU31:30SW30-3447.09 %F44First Timer!1
133Chris PARKIN31:31VM50-5447.54 %M89Desford StridersFirst Timer!11
134Jennifer PAINE31:32VW35-3948.20 %F45PB stays at 00:30:2413
135Debbie DODD31:41VW55-5957.92 %F46Wrexham AACPB stays at 00:30:0616
136Rob JONES31:51SM30-3440.97 %M90First Timer!2Strava logo
137James KITCHIN32:08VM45-4944.81 %M91PB stays at 00:31:354
138Sharon GAREH32:11VW45-4951.48 %F47First Timer!1
139Louise KITCHIN32:14VW45-4951.40 %F48New PB!6
140Paul WEBSTER32:34VM45-4943.55 %M92First Timer!1
141Sophie PAUDLER32:35VW45-4950.23 %F49New PB!2
142Alison EDWARDS32:38VW45-4948.67 %F50PB stays at 00:31:1545Strava logo
143Unknown
144Unknown
145Ollie BENTLEY32:47SM20-2439.35 %M95New PB!6
146Stuart PARNELL32:48VM35-3941.31 %M96Penyffordd Run ClubFirst Timer!2Strava logo
147Kevin WILLIAMS32:51VM50-5446.37 %M97PB stays at 00:31:4639
148Paul NEEDHAM32:56VM50-5445.50 %M98PB stays at 00:28:0725
149Roger PARRY32:56VM50-5446.26 %M99PB stays at 00:29:0115
150Gillian FOWLES32:58VW50-5451.47 %F51Whitchurch WhippetsNew PB!53Member of the parkrun 50 Club
151Ken ROBERTS33:02VM65-6952.77 %M100First Timer!1
152Helen PARRY33:07VW50-5452.59 %F52PB stays at 00:29:0024
153Matthew GREEN33:11JM11-1443.70 %M101First Timer!1
154Mona WAGNER33:12SW20-2444.58 %F53New PB!5
155Lucy MORRIS33:26SW25-2944.27 %F54PB stays at 00:33:0150Member of the parkrun 50 Club
156Julie Ann JONES33:27VW55-5955.61 %F55PB stays at 00:32:4115
157Vicki EVANS33:29VW40-4446.29 %F56PB stays at 00:27:4336
158Megan GAREH33:33SW18-1944.61 %F57PB stays at 00:33:042
159Katie PAXTON33:34VW50-5450.55 %F58PB stays at 00:33:2452Member of the parkrun 50 Club
160Rachel KENNEDY33:34SW25-2944.09 %F59First Timer!74Member of the parkrun 50 Club
161Clair HERBERT33:35VW40-4446.15 %F60PB stays at 00:30:0016
162Unknown
163Daniel COLE33:40VM45-4942.13 %M103PB stays at 00:24:0131Strava logo
164Hannah BENNETT33:42SW25-2943.92 %F61First Timer!1Strava logo
165Dawn NEEDHAM33:47VW45-4948.45 %F62PB stays at 00:31:2832
166Stephen DAVIES33:55VM55-5946.09 %M104PB stays at 00:28:0411Strava logo
167Marcos DE ALMEIDA34:10VM35-3938.83 %M105PB stays at 00:25:1210Strava logo
168Phill ALSTEAD34:15VM55-5946.03 %M106PB stays at 00:28:2958Member of the parkrun 50 Club
169Tim GUY34:18VM60-6447.18 %M107PB stays at 00:31:3138
170Unknown
171Pam LINNEY34:19VW50-5449.44 %F63PB stays at 00:29:4047
172Unknown
173Stefan PAUDLER34:55VM45-4941.58 %M110New PB!2
174Teresa WARD34:55VW50-5448.02 %F64First Timer!1
175Louis JONES34:59JM11-1442.50 %M111PB stays at 00:26:1935Member of the parkrun 10 Club
176Rebecca JONES34:59VW45-4946.78 %F65PB stays at 00:25:4453Member of the parkrun 50 Club
177Karen NEWSON35:07VW45-4945.66 %F66PB stays at 00:33:4416
178Sarah JARVIS35:08VW45-4946.58 %F67PB stays at 00:33:3515
179Louise COBB35:11VW50-5449.50 %F68PB stays at 00:35:019
180Carol SHONE35:24VW50-5449.20 %F69PB stays at 00:32:3339
181Alys WILLIAMS35:30SW25-2941.69 %F70First Timer!1
182Dewi GRIFFITHS35:31VM35-3937.59 %M112New PB!2
183Aoife GRIFFITHS35:31JW1052.84 %F71New PB!2
184Sharon OWENS35:36VW50-5447.66 %F72New PB!2
185Angela RUSHTON35:42VW55-5950.70 %F73New PB!5
186Annette BEATTIE35:44VW55-5950.65 %F74First Timer!69Member of the parkrun 50 Club
187Denise ROBERTS35:47VW50-5448.67 %F75PB stays at 00:35:433
188Jennifer ROBERTS35:48SW25-2941.34 %F76PB stays at 00:30:258
189Sandra DAVIES35:59VW35-3941.69 %F77PB stays at 00:30:426Strava logo
190Ian GRIFFITHS36:03VM40-4438.74 %M113PB stays at 00:35:563
191Stuart PINCHBECK36:13VM70-7448.69 %M114New PB!10Strava logo
192Simon COBB36:16VM45-4939.71 %M115New PB!8
193Paul FORD36:39VM50-5440.56 %M116PB stays at 00:26:1034Strava logo
194Karon STACE-ROBERTS37:12VW50-5446.82 %F78PB stays at 00:34:5115
195Janet DAVIES37:26VW40-4441.41 %F79First Timer!1
196Sandra JONES37:40VW45-4942.57 %F80Wrexham AACPB stays at 00:34:2127Member of the parkrun v25 ClubStrava logo
197Paul HOLLAND37:42VM45-4938.82 %M117Wrexham AACPB stays at 00:28:1411Member of the parkrun v25 ClubStrava logo
198Unknown
199David O'CALLAGHAN38:42VM55-5941.09 %M119PB stays at 00:32:3518Strava logo
200Tomos WILLIAMS38:48JM1043.86 %M120PB stays at 00:34:2314Member of the parkrun 10 Club
201Rhian WILLIAMS38:49VW35-3938.99 %F81PB stays at 00:35:218
202Kevin GRIFFITH39:02VM40-4436.04 %M121First Timer!1
203Elaine BLAIR39:18VW55-5945.46 %F82First Timer!8
204Emma GREEN39:27VW35-3938.02 %F83First Timer!1
205David CARTWRIGHT39:29VM50-5437.95 %M122First Timer!1
206Jo CLEMSON39:38VW45-4940.45 %F84PB stays at 00:37:5213Strava logo
207Iwan PENK40:07JM1039.34 %M123PB stays at 00:29:3019Member of the parkrun 10 Club
208Emma BURTON40:07VW40-4438.64 %F85PB stays at 00:28:4128
209Victoria FORD40:27VW40-4438.32 %F86PB stays at 00:39:1913Strava logo
210Unknown
211Unknown
212Cerys CLARKE40:50VW55-5944.33 %F87PB stays at 00:39:2013
213Jenson VYE40:52JM11-1437.44 %M126First Timer!1
214Sarah VYE41:01VW40-4437.30 %F88First Timer!1
215Paris BARTLEY41:03SW20-2436.05 %F89First Timer!1
216Julie MAY41:20VW55-5943.79 %F90First Timer!1
217Samantha DAKIN-EVANS41:46VW45-4939.19 %F91New PB!4
218Guy EVANS41:47VM45-4934.18 %M127New PB!4
219Sarah GRAY43:37VW55-5941.50 %F92First Timer!20
220Mark GRIFFITHS43:52VM35-3930.24 %M128PB stays at 00:42:593
221Diane MCCARTHY44:19VW50-5439.79 %F93First Timer!8
222Poppy GREEN44:21JW15-1734.95 %F94First Timer!1
223Unknown
224Unknown
225Mhairi MCLAREN47:07VW35-3931.73 %F95PB stays at 00:28:5019
226Jeanette OWENS47:21VW40-4432.49 %F96First Timer!1
227Emily WRIGHT47:22SW20-2431.25 %F97PB stays at 00:29:3420
228Unknown
229Unknown
230Unknown
231Henry KNEW50:10JM15-1726.91 %M134PB stays at 00:34:555
232Joseph PEARCE50:10JM15-1726.91 %M135PB stays at 00:47:132
233Gill MORRIS50:11VW45-4933.01 %F98PB stays at 00:40:2824

Thanks to the volunteers

We are very grateful to the volunteers who made this event happen:Sarah BARKER, Rowland BARKER, Gwen BRADSHAW, Philippa CAPSTICK, Alexandra EDWARDS, Mary GOWERS, Peter HOWELL, Jack JONES, Henry KNEW, Janet MCHUGH, Gill MORRIS, Angela NICKLIN, Fynn NOBLE, Rob PARKIN, Joseph PEARCE, Deborah SHORT, Nigel SMITH, Barbara WARD, Laura Jayne WESTWOOD, Richard Stuart WESTWOOD

Why not get involved and volunteer?

What is this table?

This table shows the complete results for the specified week at this event. It is automatically shown when you navigate to the results page, but can also be reached by clicking on Latest Results, or by picking a specific week from the Event History table. If you bookmark the Latest Results page in your browser, the bookmark will always take you to the most up to date results table. If you bookmark a results page reached via the Event History table, the bookmark will then always take you to that specific week's results.

The columns

  • Pos - the runner's overall position in the run.
  • parkrunner - is the registered name of the athlete; clicking on the name takes you to that athlete's results page for this event.
  • Time - is the runner's recorded time - we record the overall time between the run director's start instruction and the runner crossing the finish line.
  • Age Cat - represents the age category of the runner on the day of the run; the first letter represents the major age categories (J)unior, (S)enior and (Veteran); the second letter represents gender (M)en and (W)omen; the remainder of the category represents a more specific age range. There are two further categories for wheel chair users; WWC and MWC represent Women and Men respectively. Clicking on the result category takes you to that age categories' historical record for this event.
  • Age Grade
  • - Gives an indication of how well the runner has done relative to their age and gender see the FAQ article for more information.
  • Gender - (M)ale or (F)emale
  • Gender Pos- Gender finish positions.
  • Club - Running club if registered.
  • Note - Note - Comments about PBs (Personal Bests).
  • Total Runs - Total number of runs across all parkruns, an indicator of membership of the various parkrun clubs, and their links with partner websites.

As with any of the results tables, the table can be sorted by any column by clicking on the column heading.